sensor_id;sensor_type;location;lat;lon;timestamp;temperature;humidity
20524;DHT22;10420;48.542;12.270;2023-05-10T00:04:41;12.60;99.90
20524;DHT22;10420;48.542;12.270;2023-05-10T00:09:42;12.50;99.90
20524;DHT22;10420;48.542;12.270;2023-05-10T00:14:43;12.40;99.90
20524;DHT22;10420;48.542;12.270;2023-05-10T00:19:43;12.40;99.90
20524;DHT22;10420;48.542;12.270;2023-05-10T00:24:44;12.60;99.90
20524;DHT22;10420;48.542;12.270;2023-05-10T00:29:45;12.30;99.90
20524;DHT22;10420;48.542;12.270;2023-05-10T00:34:45;12.40;99.90
20524;DHT22;10420;48.542;12.270;2023-05-10T00:39:46;12.40;99.90
20524;DHT22;10420;48.542;12.270;2023-05-10T00:44:47;12.40;99.90
20524;DHT22;10420;48.542;12.270;2023-05-10T00:49:47;12.60;99.90
20524;DHT22;10420;48.542;12.270;2023-05-10T00:54:48;12.60;99.90
20524;DHT22;10420;48.542;12.270;2023-05-10T00:59:49;12.60;99.90
20524;DHT22;10420;48.542;12.270;2023-05-10T01:04:49;12.50;99.90
20524;DHT22;10420;48.542;12.270;2023-05-10T01:09:50;12.50;99.90
20524;DHT22;10420;48.542;12.270;2023-05-10T01:14:51;12.60;99.90
20524;DHT22;10420;48.542;12.270;2023-05-10T01:19:52;12.50;99.90
20524;DHT22;10420;48.542;12.270;2023-05-10T01:25:31;12.70;99.90
20524;DHT22;10420;48.542;12.270;2023-05-10T01:41:41;13.00;99.90
20524;DHT22;10420;48.542;12.270;2023-05-10T01:46:53;13.20;99.90
20524;DHT22;10420;48.542;12.270;2023-05-10T01:52:06;13.20;99.90
20524;DHT22;10420;48.542;12.270;2023-05-10T01:57:09;13.30;99.90
20524;DHT22;10420;48.542;12.270;2023-05-10T02:02:12;13.30;99.90
20524;DHT22;10420;48.542;12.270;2023-05-10T02:07:14;13.20;99.90
20524;DHT22;10420;48.542;12.270;2023-05-10T02:12:16;13.20;99.90
20524;DHT22;10420;48.542;12.270;2023-05-10T02:17:18;13.30;99.90
20524;DHT22;10420;48.542;12.270;2023-05-10T02:22:19;13.20;99.90
20524;DHT22;10420;48.542;12.270;2023-05-10T02:27:20;13.20;99.90
20524;DHT22;10420;48.542;12.270;2023-05-10T02:32:24;13.10;99.90
20524;DHT22;10420;48.542;12.270;2023-05-10T02:37:25;13.00;99.90
20524;DHT22;10420;48.542;12.270;2023-05-10T02:42:27;13.10;99.90
20524;DHT22;10420;48.542;12.270;2023-05-10T02:47:29;13.10;99.90
20524;DHT22;10420;48.542;12.270;2023-05-10T02:52:45;13.20;99.90
20524;DHT22;10420;48.542;12.270;2023-05-10T02:57:51;13.30;99.90
20524;DHT22;10420;48.542;12.270;2023-05-10T03:02:53;13.30;99.90
20524;DHT22;10420;48.542;12.270;2023-05-10T03:07:54;13.20;99.90
20524;DHT22;10420;48.542;12.270;2023-05-10T03:18:11;13.30;99.90
20524;DHT22;10420;48.542;12.270;2023-05-10T03:28:38;13.30;99.90
20524;DHT22;10420;48.542;12.270;2023-05-10T03:33:49;13.30;99.90
20524;DHT22;10420;48.542;12.270;2023-05-10T03:38:50;13.30;99.90
20524;DHT22;10420;48.542;12.270;2023-05-10T03:43:51;13.30;99.90
20524;DHT22;10420;48.542;12.270;2023-05-10T03:48:52;13.30;99.90
20524;DHT22;10420;48.542;12.270;2023-05-10T03:53:52;13.20;99.90
20524;DHT22;10420;48.542;12.270;2023-05-10T03:58:53;13.30;99.90
20524;DHT22;10420;48.542;12.270;2023-05-10T04:03:53;13.20;99.90
20524;DHT22;10420;48.542;12.270;2023-05-10T04:08:54;13.10;99.90
20524;DHT22;10420;48.542;12.270;2023-05-10T04:13:55;13.20;99.90
20524;DHT22;10420;48.542;12.270;2023-05-10T04:18:56;13.30;99.90
20524;DHT22;10420;48.542;12.270;2023-05-10T04:23:56;13.20;99.90
20524;DHT22;10420;48.542;12.270;2023-05-10T04:28:57;13.10;99.90
20524;DHT22;10420;48.542;12.270;2023-05-10T04:33:58;13.10;99.90
20524;DHT22;10420;48.542;12.270;2023-05-10T04:38:59;13.20;99.90
20524;DHT22;10420;48.542;12.270;2023-05-10T04:43:59;13.10;99.90
20524;DHT22;10420;48.542;12.270;2023-05-10T04:49:00;13.30;99.90
20524;DHT22;10420;48.542;12.270;2023-05-10T04:54:01;13.30;99.90
20524;DHT22;10420;48.542;12.270;2023-05-10T04:59:02;13.30;99.90
20524;DHT22;10420;48.542;12.270;2023-05-10T05:04:03;13.30;99.90
20524;DHT22;10420;48.542;12.270;2023-05-10T05:09:03;13.40;99.90
20524;DHT22;10420;48.542;12.270;2023-05-10T05:14:04;13.50;99.90
20524;DHT22;10420;48.542;12.270;2023-05-10T05:19:05;13.40;99.90
20524;DHT22;10420;48.542;12.270;2023-05-10T05:24:06;13.40;99.90
20524;DHT22;10420;48.542;12.270;2023-05-10T05:29:07;13.60;99.90
20524;DHT22;10420;48.542;12.270;2023-05-10T05:34:07;13.60;99.90
20524;DHT22;10420;48.542;12.270;2023-05-10T05:39:08;13.50;99.90
20524;DHT22;10420;48.542;12.270;2023-05-10T05:44:08;13.50;99.90
20524;DHT22;10420;48.542;12.270;2023-05-10T05:49:09;13.40;99.90
20524;DHT22;10420;48.542;12.270;2023-05-10T05:54:10;13.50;99.90
20524;DHT22;10420;48.542;12.270;2023-05-10T05:59:11;13.40;99.90
20524;DHT22;10420;48.542;12.270;2023-05-10T06:04:12;13.40;99.90
20524;DHT22;10420;48.542;12.270;2023-05-10T06:09:12;13.40;99.90
20524;DHT22;10420;48.542;12.270;2023-05-10T06:14:13;13.40;99.90
20524;DHT22;10420;48.542;12.270;2023-05-10T06:19:14;13.50;99.90
20524;DHT22;10420;48.542;12.270;2023-05-10T06:24:14;13.50;99.90
20524;DHT22;10420;48.542;12.270;2023-05-10T06:29:15;13.60;99.90
20524;DHT22;10420;48.542;12.270;2023-05-10T06:34:16;13.80;99.90
20524;DHT22;10420;48.542;12.270;2023-05-10T06:39:16;13.70;99.90
20524;DHT22;10420;48.542;12.270;2023-05-10T06:44:17;13.80;99.90
20524;DHT22;10420;48.542;12.270;2023-05-10T06:49:17;13.80;99.90
20524;DHT22;10420;48.542;12.270;2023-05-10T06:54:19;13.80;99.90
20524;DHT22;10420;48.542;12.270;2023-05-10T06:59:19;13.70;99.90
20524;DHT22;10420;48.542;12.270;2023-05-10T07:04:21;13.80;99.90
20524;DHT22;10420;48.542;12.270;2023-05-10T07:09:22;14.00;99.90
20524;DHT22;10420;48.542;12.270;2023-05-10T07:14:24;13.90;99.90
20524;DHT22;10420;48.542;12.270;2023-05-10T07:19:25;14.00;99.90
20524;DHT22;10420;48.542;12.270;2023-05-10T07:24:26;13.80;99.90
20524;DHT22;10420;48.542;12.270;2023-05-10T07:29:26;13.80;99.90
20524;DHT22;10420;48.542;12.270;2023-05-10T07:34:27;13.80;99.90
20524;DHT22;10420;48.542;12.270;2023-05-10T07:39:28;13.80;99.90
20524;DHT22;10420;48.542;12.270;2023-05-10T07:44:29;13.60;99.90
20524;DHT22;10420;48.542;12.270;2023-05-10T07:49:30;13.50;99.90
20524;DHT22;10420;48.542;12.270;2023-05-10T07:54:30;13.80;99.90
20524;DHT22;10420;48.542;12.270;2023-05-10T07:59:31;13.90;99.90
20524;DHT22;10420;48.542;12.270;2023-05-10T08:04:34;13.90;99.90
20524;DHT22;10420;48.542;12.270;2023-05-10T08:09:35;14.00;99.90
20524;DHT22;10420;48.542;12.270;2023-05-10T08:14:36;14.10;99.90
20524;DHT22;10420;48.542;12.270;2023-05-10T08:19:37;14.30;99.90
20524;DHT22;10420;48.542;12.270;2023-05-10T08:24:37;14.30;99.90
20524;DHT22;10420;48.542;12.270;2023-05-10T08:29:39;14.20;99.90
20524;DHT22;10420;48.542;12.270;2023-05-10T08:34:40;14.40;99.90
20524;DHT22;10420;48.542;12.270;2023-05-10T08:39:40;14.20;99.90
20524;DHT22;10420;48.542;12.270;2023-05-10T08:44:41;14.40;99.90
20524;DHT22;10420;48.542;12.270;2023-05-10T08:49:44;15.10;99.90
20524;DHT22;10420;48.542;12.270;2023-05-10T08:54:47;15.80;99.90
20524;DHT22;10420;48.542;12.270;2023-05-10T08:59:47;17.70;99.90
20524;DHT22;10420;48.542;12.270;2023-05-10T09:04:48;17.30;99.90
20524;DHT22;10420;48.542;12.270;2023-05-10T09:09:49;16.50;99.90
20524;DHT22;10420;48.542;12.270;2023-05-10T09:14:52;16.00;99.90
20524;DHT22;10420;48.542;12.270;2023-05-10T09:20:02;16.20;99.90
20524;DHT22;10420;48.542;12.270;2023-05-10T09:30:09;17.60;99.90
20524;DHT22;10420;48.542;12.270;2023-05-10T09:35:11;18.00;99.90
20524;DHT22;10420;48.542;12.270;2023-05-10T09:40:14;17.90;99.90
20524;DHT22;10420;48.542;12.270;2023-05-10T09:45:15;16.90;99.90
20524;DHT22;10420;48.542;12.270;2023-05-10T09:50:16;15.80;99.90
20524;DHT22;10420;48.542;12.270;2023-05-10T09:55:21;15.20;99.90
20524;DHT22;10420;48.542;12.270;2023-05-10T10:00:22;15.40;99.90
20524;DHT22;10420;48.542;12.270;2023-05-10T10:05:34;15.30;99.90
20524;DHT22;10420;48.542;12.270;2023-05-10T10:10:35;15.00;99.90
20524;DHT22;10420;48.542;12.270;2023-05-10T10:15:36;15.20;99.90
20524;DHT22;10420;48.542;12.270;2023-05-10T10:20:37;16.30;99.90
20524;DHT22;10420;48.542;12.270;2023-05-10T10:25:38;17.90;99.90
20524;DHT22;10420;48.542;12.270;2023-05-10T10:30:41;19.30;99.90
20524;DHT22;10420;48.542;12.270;2023-05-10T10:35:44;18.20;99.90
20524;DHT22;10420;48.542;12.270;2023-05-10T10:40:46;17.30;99.90
20524;DHT22;10420;48.542;12.270;2023-05-10T10:51:14;16.70;99.90
20524;DHT22;10420;48.542;12.270;2023-05-10T10:56:14;16.50;99.90
20524;DHT22;10420;48.542;12.270;2023-05-10T11:01:19;16.40;99.90
20524;DHT22;10420;48.542;12.270;2023-05-10T11:06:34;16.80;99.90
20524;DHT22;10420;48.542;12.270;2023-05-10T11:11:36;17.30;99.90
20524;DHT22;10420;48.542;12.270;2023-05-10T11:16:43;17.60;99.90
20524;DHT22;10420;48.542;12.270;2023-05-10T11:27:06;18.00;99.90
20524;DHT22;10420;48.542;12.270;2023-05-10T11:32:06;18.40;99.90
20524;DHT22;10420;48.542;12.270;2023-05-10T11:37:08;18.70;99.90
20524;DHT22;10420;48.542;12.270;2023-05-10T11:42:09;18.60;99.90
20524;DHT22;10420;48.542;12.270;2023-05-10T11:47:11;18.70;99.90
20524;DHT22;10420;48.542;12.270;2023-05-10T11:52:12;18.70;99.90
20524;DHT22;10420;48.542;12.270;2023-05-10T11:57:13;18.90;99.90
20524;DHT22;10420;48.542;12.270;2023-05-10T12:02:14;19.40;99.90
20524;DHT22;10420;48.542;12.270;2023-05-10T12:07:16;18.90;99.90
20524;DHT22;10420;48.542;12.270;2023-05-10T12:12:16;17.90;99.90
20524;DHT22;10420;48.542;12.270;2023-05-10T12:17:17;17.60;99.90
20524;DHT22;10420;48.542;12.270;2023-05-10T12:22:20;17.60;99.90
20524;DHT22;10420;48.542;12.270;2023-05-10T12:27:21;18.10;99.90
20524;DHT22;10420;48.542;12.270;2023-05-10T12:32:40;17.80;99.90
20524;DHT22;10420;48.542;12.270;2023-05-10T12:37:42;17.70;99.90
20524;DHT22;10420;48.542;12.270;2023-05-10T12:42:43;17.50;99.90
20524;DHT22;10420;48.542;12.270;2023-05-10T12:47:45;17.00;99.90
20524;DHT22;10420;48.542;12.270;2023-05-10T12:52:45;16.40;99.90
20524;DHT22;10420;48.542;12.270;2023-05-10T12:57:46;15.80;99.90
20524;DHT22;10420;48.542;12.270;2023-05-10T13:02:47;15.70;99.90
20524;DHT22;10420;48.542;12.270;2023-05-10T13:07:47;15.60;99.90
20524;DHT22;10420;48.542;12.270;2023-05-10T13:12:48;15.40;99.90
20524;DHT22;10420;48.542;12.270;2023-05-10T13:17:48;15.20;99.90
20524;DHT22;10420;48.542;12.270;2023-05-10T13:22:49;14.60;99.90
20524;DHT22;10420;48.542;12.270;2023-05-10T13:27:50;14.00;99.90
20524;DHT22;10420;48.542;12.270;2023-05-10T13:32:51;13.50;99.90
20524;DHT22;10420;48.542;12.270;2023-05-10T13:37:51;13.20;99.90
20524;DHT22;10420;48.542;12.270;2023-05-10T13:42:53;13.30;99.90
20524;DHT22;10420;48.542;12.270;2023-05-10T13:47:54;13.70;99.90
20524;DHT22;10420;48.542;12.270;2023-05-10T13:52:54;13.80;99.90
20524;DHT22;10420;48.542;12.270;2023-05-10T13:57:55;13.60;99.90
20524;DHT22;10420;48.542;12.270;2023-05-10T14:02:56;13.70;99.90
20524;DHT22;10420;48.542;12.270;2023-05-10T14:07:57;13.60;99.90
20524;DHT22;10420;48.542;12.270;2023-05-10T14:12:57;13.20;99.90
20524;DHT22;10420;48.542;12.270;2023-05-10T14:17:58;13.00;99.90
20524;DHT22;10420;48.542;12.270;2023-05-10T14:22:59;12.90;99.90
20524;DHT22;10420;48.542;12.270;2023-05-10T14:28:00;12.90;99.90
20524;DHT22;10420;48.542;12.270;2023-05-10T14:33:01;12.60;99.90
20524;DHT22;10420;48.542;12.270;2023-05-10T14:38:02;12.80;99.90
20524;DHT22;10420;48.542;12.270;2023-05-10T14:43:04;13.10;99.90
20524;DHT22;10420;48.542;12.270;2023-05-10T14:48:04;12.90;99.90
20524;DHT22;10420;48.542;12.270;2023-05-10T14:53:05;12.90;99.90
20524;DHT22;10420;48.542;12.270;2023-05-10T14:58:06;12.80;99.90
20524;DHT22;10420;48.542;12.270;2023-05-10T15:03:06;12.80;99.90
20524;DHT22;10420;48.542;12.270;2023-05-10T15:08:07;12.70;99.90
20524;DHT22;10420;48.542;12.270;2023-05-10T15:13:09;12.70;99.90
20524;DHT22;10420;48.542;12.270;2023-05-10T15:18:10;12.70;99.90
20524;DHT22;10420;48.542;12.270;2023-05-10T15:23:10;12.80;99.90
20524;DHT22;10420;48.542;12.270;2023-05-10T15:28:11;12.70;99.90
20524;DHT22;10420;48.542;12.270;2023-05-10T15:33:12;12.60;99.90
20524;DHT22;10420;48.542;12.270;2023-05-10T15:38:12;12.80;99.90
20524;DHT22;10420;48.542;12.270;2023-05-10T15:43:13;12.80;99.90
20524;DHT22;10420;48.542;12.270;2023-05-10T15:48:14;13.10;99.90
20524;DHT22;10420;48.542;12.270;2023-05-10T15:53:14;13.30;99.90
20524;DHT22;10420;48.542;12.270;2023-05-10T15:58:15;13.30;99.90
20524;DHT22;10420;48.542;12.270;2023-05-10T16:03:16;13.10;99.90
20524;DHT22;10420;48.542;12.270;2023-05-10T16:08:16;12.90;99.90
20524;DHT22;10420;48.542;12.270;2023-05-10T16:13:17;12.70;99.90
20524;DHT22;10420;48.542;12.270;2023-05-10T16:18:18;12.80;99.90
20524;DHT22;10420;48.542;12.270;2023-05-10T16:23:18;12.60;99.90
20524;DHT22;10420;48.542;12.270;2023-05-10T16:28:19;12.70;99.90
20524;DHT22;10420;48.542;12.270;2023-05-10T16:33:20;12.80;99.90
20524;DHT22;10420;48.542;12.270;2023-05-10T16:38:21;12.70;99.90
20524;DHT22;10420;48.542;12.270;2023-05-10T16:43:22;12.60;99.90
20524;DHT22;10420;48.542;12.270;2023-05-10T16:48:22;12.70;99.90
20524;DHT22;10420;48.542;12.270;2023-05-10T16:53:23;12.60;99.90
20524;DHT22;10420;48.542;12.270;2023-05-10T16:58:24;12.40;99.90
20524;DHT22;10420;48.542;12.270;2023-05-10T17:03:24;12.50;99.90
20524;DHT22;10420;48.542;12.270;2023-05-10T17:08:25;12.40;99.90
20524;DHT22;10420;48.542;12.270;2023-05-10T17:13:26;12.50;99.90
20524;DHT22;10420;48.542;12.270;2023-05-10T17:18:27;12.60;99.90
20524;DHT22;10420;48.542;12.270;2023-05-10T17:23:28;12.70;99.90
20524;DHT22;10420;48.542;12.270;2023-05-10T17:28:29;12.60;99.90
20524;DHT22;10420;48.542;12.270;2023-05-10T17:33:30;12.60;99.90
20524;DHT22;10420;48.542;12.270;2023-05-10T17:38:31;12.60;99.90
20524;DHT22;10420;48.542;12.270;2023-05-10T17:43:31;12.50;99.90
20524;DHT22;10420;48.542;12.270;2023-05-10T17:48:32;12.40;99.90
20524;DHT22;10420;48.542;12.270;2023-05-10T17:53:33;12.40;99.90
20524;DHT22;10420;48.542;12.270;2023-05-10T17:58:34;12.40;99.90
20524;DHT22;10420;48.542;12.270;2023-05-10T18:03:37;12.50;99.90
20524;DHT22;10420;48.542;12.270;2023-05-10T18:08:38;12.40;99.90
20524;DHT22;10420;48.542;12.270;2023-05-10T18:13:38;12.30;99.90
20524;DHT22;10420;48.542;12.270;2023-05-10T18:18:40;12.30;99.90
20524;DHT22;10420;48.542;12.270;2023-05-10T18:23:41;12.30;99.90
20524;DHT22;10420;48.542;12.270;2023-05-10T18:28:41;12.20;99.90
20524;DHT22;10420;48.542;12.270;2023-05-10T18:33:43;12.20;99.90
20524;DHT22;10420;48.542;12.270;2023-05-10T18:38:44;12.20;99.90
20524;DHT22;10420;48.542;12.270;2023-05-10T18:43:45;12.20;99.90
20524;DHT22;10420;48.542;12.270;2023-05-10T18:48:46;12.10;99.90
20524;DHT22;10420;48.542;12.270;2023-05-10T18:53:47;12.00;99.90
20524;DHT22;10420;48.542;12.270;2023-05-10T18:58:48;12.00;99.90
20524;DHT22;10420;48.542;12.270;2023-05-10T19:03:49;11.90;99.90
20524;DHT22;10420;48.542;12.270;2023-05-10T19:08:49;11.90;99.90
20524;DHT22;10420;48.542;12.270;2023-05-10T19:13:50;11.70;99.90
20524;DHT22;10420;48.542;12.270;2023-05-10T19:18:51;11.60;99.90
20524;DHT22;10420;48.542;12.270;2023-05-10T19:23:51;11.60;99.90
20524;DHT22;10420;48.542;12.270;2023-05-10T19:28:53;11.60;99.90
20524;DHT22;10420;48.542;12.270;2023-05-10T19:33:54;11.60;99.90
20524;DHT22;10420;48.542;12.270;2023-05-10T19:38:54;11.50;99.90
20524;DHT22;10420;48.542;12.270;2023-05-10T19:43:55;11.60;99.90
20524;DHT22;10420;48.542;12.270;2023-05-10T19:48:56;11.50;99.90
20524;DHT22;10420;48.542;12.270;2023-05-10T19:53:56;11.50;99.90
20524;DHT22;10420;48.542;12.270;2023-05-10T19:58:57;11.40;99.90
20524;DHT22;10420;48.542;12.270;2023-05-10T20:03:58;11.30;99.90
20524;DHT22;10420;48.542;12.270;2023-05-10T20:08:59;11.30;99.90
20524;DHT22;10420;48.542;12.270;2023-05-10T20:13:59;11.30;99.90
20524;DHT22;10420;48.542;12.270;2023-05-10T20:19:00;11.30;99.90
20524;DHT22;10420;48.542;12.270;2023-05-10T20:24:01;11.30;99.90
20524;DHT22;10420;48.542;12.270;2023-05-10T20:29:01;11.20;99.90
20524;DHT22;10420;48.542;12.270;2023-05-10T20:34:02;11.20;99.90
20524;DHT22;10420;48.542;12.270;2023-05-10T20:39:03;11.20;99.90
20524;DHT22;10420;48.542;12.270;2023-05-10T20:44:03;11.20;99.90
20524;DHT22;10420;48.542;12.270;2023-05-10T20:49:06;11.20;99.90
20524;DHT22;10420;48.542;12.270;2023-05-10T20:54:07;11.20;99.90
20524;DHT22;10420;48.542;12.270;2023-05-10T20:59:08;11.20;99.90
20524;DHT22;10420;48.542;12.270;2023-05-10T21:04:08;11.20;99.90
20524;DHT22;10420;48.542;12.270;2023-05-10T21:09:09;11.00;99.90
20524;DHT22;10420;48.542;12.270;2023-05-10T21:14:10;11.20;99.90
20524;DHT22;10420;48.542;12.270;2023-05-10T21:19:10;11.20;99.90
20524;DHT22;10420;48.542;12.270;2023-05-10T21:24:11;11.10;99.90
20524;DHT22;10420;48.542;12.270;2023-05-10T21:29:12;11.00;99.90
20524;DHT22;10420;48.542;12.270;2023-05-10T21:34:13;11.10;99.90
20524;DHT22;10420;48.542;12.270;2023-05-10T21:39:13;11.00;99.90
20524;DHT22;10420;48.542;12.270;2023-05-10T21:44:14;11.00;99.90
20524;DHT22;10420;48.542;12.270;2023-05-10T21:49:15;11.00;99.90
20524;DHT22;10420;48.542;12.270;2023-05-10T21:54:15;10.90;99.90
20524;DHT22;10420;48.542;12.270;2023-05-10T21:59:16;10.90;99.90
20524;DHT22;10420;48.542;12.270;2023-05-10T22:04:17;10.90;99.90
20524;DHT22;10420;48.542;12.270;2023-05-10T22:09:18;10.80;99.90
20524;DHT22;10420;48.542;12.270;2023-05-10T22:14:18;10.90;99.90
20524;DHT22;10420;48.542;12.270;2023-05-10T22:19:19;10.80;99.90
20524;DHT22;10420;48.542;12.270;2023-05-10T22:24:20;10.70;99.90
20524;DHT22;10420;48.542;12.270;2023-05-10T22:29:21;10.70;99.90
20524;DHT22;10420;48.542;12.270;2023-05-10T22:34:22;10.80;99.90
20524;DHT22;10420;48.542;12.270;2023-05-10T22:39:23;10.80;99.90
20524;DHT22;10420;48.542;12.270;2023-05-10T22:44:24;10.70;99.90
20524;DHT22;10420;48.542;12.270;2023-05-10T22:49:24;10.70;99.90
20524;DHT22;10420;48.542;12.270;2023-05-10T22:54:25;10.70;99.90
20524;DHT22;10420;48.542;12.270;2023-05-10T22:59:26;10.60;99.90
20524;DHT22;10420;48.542;12.270;2023-05-10T23:04:28;10.50;99.90
20524;DHT22;10420;48.542;12.270;2023-05-10T23:09:28;10.50;99.90
20524;DHT22;10420;48.542;12.270;2023-05-10T23:14:29;10.60;99.90
20524;DHT22;10420;48.542;12.270;2023-05-10T23:19:30;10.50;99.90
20524;DHT22;10420;48.542;12.270;2023-05-10T23:24:30;10.60;99.90
20524;DHT22;10420;48.542;12.270;2023-05-10T23:29:31;10.50;99.90
20524;DHT22;10420;48.542;12.270;2023-05-10T23:34:32;10.50;99.90
20524;DHT22;10420;48.542;12.270;2023-05-10T23:39:33;10.50;99.90
20524;DHT22;10420;48.542;12.270;2023-05-10T23:44:34;10.60;99.90
20524;DHT22;10420;48.542;12.270;2023-05-10T23:49:34;10.60;99.90
20524;DHT22;10420;48.542;12.270;2023-05-10T23:54:35;10.60;99.90
20524;DHT22;10420;48.542;12.270;2023-05-10T23:59:36;10.60;99.90
